Time;durP1;ratioP1;P1;durP2;ratioP2;P2;SDS_P1;SDS_P2;PMS_P1;PMS_P2;Temp;Humidity;BMP_temperature;BMP_pressure;BME280_temperature;BME280_humidity;BME280_pressure;Samples;Min_cycle;Max_cycle;Signal;HPM_P1;HPM_P2
2021/08/10 00:01:43;;;;;;;;;;;;;;;18.14;99.64;99077.69;5053473;28;20294;-82
2021/08/10 00:04:08;;;;;;;;;;;;;;;18.13;100.00;99083.81;5070109;28;19924;-81
2021/08/10 00:06:33;;;;;;;;;;;;;;;18.37;100.00;99077.09;5073906;28;19926;-82
2021/08/10 00:08:59;;;;;;;;;;;;;;;18.03;100.00;99074.91;5072253;28;19920;-81
2021/08/10 00:11:24;;;;;;;;;;;;;;;18.05;100.00;99083.47;5053265;28;19924;-82
2021/08/10 00:13:49;;;;;;;;;;;;;;;18.26;100.00;99079.53;5053139;28;20006;-82
2021/08/10 00:16:14;;;;;;;;;;;;;;;18.46;98.59;99072.25;5071761;28;20169;-81
2021/08/10 00:18:40;;;;;;;;;;;;;;;18.24;100.00;99057.94;5069719;28;19920;-82
2021/08/10 00:21:05;;;;;;;;;;;;;;;18.28;98.46;99062.03;5073486;28;20049;-82
2021/08/10 00:23:30;;;;;;;;;;;;;;;18.17;98.05;99067.06;5057430;28;19919;-80
2021/08/10 00:25:55;;;;;;;;;;;;;;;18.11;98.64;99055.28;5072087;28;19916;-81
2021/08/10 00:28:21;;;;;;;;;;;;;;;18.12;98.93;99048.28;5053029;28;19920;-82
2021/08/10 00:30:46;;;;;;;;;;;;;;;18.19;99.12;99052.16;5071072;28;19916;-82
2021/08/10 00:33:12;;;;;;;;;;;;;;;18.27;97.81;99049.06;5054705;28;19920;-83
2021/08/10 00:35:37;;;;;;;;;;;;;;;17.92;100.00;99042.53;5072184;28;19946;-81
2021/08/10 00:38:03;;;;;;;;;;;;;;;18.01;98.92;99040.28;5070241;28;20038;-80
2021/08/10 00:40:29;;;;;;;;;;;;;;;18.01;100.00;99042.91;5069100;28;19916;-80
2021/08/10 00:42:54;;;;;;;;;;;;;;;18.33;99.27;99051.31;5069764;28;19924;-81
2021/08/10 00:45:20;;;;;;;;;;;;;;;18.29;97.28;99055.03;5052383;28;19979;-82
2021/08/10 00:47:45;;;;;;;;;;;;;;;18.08;100.00;99047.63;5069458;28;19924;-82
2021/08/10 00:50:11;;;;;;;;;;;;;;;18.16;100.00;99049.78;5054025;28;20616;-81
2021/08/10 00:52:36;;;;;;;;;;;;;;;18.53;96.28;99052.66;5071614;28;20029;-81
2021/08/10 00:55:03;;;;;;;;;;;;;;;18.31;100.00;99050.56;5070173;28;19916;-81
2021/08/10 00:57:28;;;;;;;;;;;;;;;18.16;99.69;99065.41;5070738;28;20003;-81
2021/08/10 00:59:54;;;;;;;;;;;;;;;18.09;100.00;99058.91;5070578;28;20039;-82
2021/08/10 01:02:20;;;;;;;;;;;;;;;18.08;100.00;99059.81;5053982;28;20701;-81
2021/08/10 01:04:45;;;;;;;;;;;;;;;18.19;99.29;99058.22;5053071;28;20044;-81
2021/08/10 01:07:13;;;;;;;;;;;;;;;18.26;100.00;99058.66;5055731;28;19921;-81
2021/08/10 01:09:55;;;;;;;;;;;;;;;18.13;100.00;99056.00;5051016;28;19920;-81
2021/08/10 01:12:24;;;;;;;;;;;;;;;17.88;100.00;99058.44;5073083;28;19925;-82
2021/08/10 01:14:55;;;;;;;;;;;;;;;17.99;100.00;99056.00;5068747;28;19916;-81
2021/08/10 01:17:22;;;;;;;;;;;;;;;17.95;100.00;99057.16;5069322;28;19916;-82
2021/08/10 01:20:02;;;;;;;;;;;;;;;17.89;100.00;99057.53;5055897;28;19927;-82
2021/08/10 01:22:28;;;;;;;;;;;;;;;17.94;100.00;99051.09;5069449;28;19916;-82
2021/08/10 01:25:12;;;;;;;;;;;;;;;18.36;95.91;99049.34;5069125;28;19921;-81
2021/08/10 01:27:37;;;;;;;;;;;;;;;18.73;89.85;99054.81;5071093;28;19928;-82
2021/08/10 01:30:05;;;;;;;;;;;;;;;18.21;98.25;99058.13;5070988;28;20436;-82
2021/08/10 01:32:30;;;;;;;;;;;;;;;17.95;100.00;99052.78;5069739;28;19959;-80
2021/08/10 01:34:56;;;;;;;;;;;;;;;18.02;97.58;99058.44;5072948;28;19951;-81
2021/08/10 01:37:28;;;;;;;;;;;;;;;18.01;100.00;99055.91;5041163;28;19994;-80
2021/08/10 01:39:54;;;;;;;;;;;;;;;17.98;100.00;99057.78;5070135;28;19988;-81
2021/08/10 01:42:20;;;;;;;;;;;;;;;18.29;96.12;99052.41;5059346;28;19963;-83
2021/08/10 01:44:45;;;;;;;;;;;;;;;18.03;97.82;99049.69;5070303;28;19986;-82
2021/08/10 01:47:11;;;;;;;;;;;;;;;17.92;99.36;99052.94;5052591;28;19923;-80
2021/08/10 01:49:36;;;;;;;;;;;;;;;17.79;100.00;99049.41;5051710;28;20438;-82
2021/08/10 01:52:02;;;;;;;;;;;;;;;17.99;98.92;99045.59;5067961;28;19970;-80
2021/08/10 01:54:27;;;;;;;;;;;;;;;17.76;100.00;99046.97;5069261;28;20011;-82
2021/08/10 01:56:53;;;;;;;;;;;;;;;17.50;100.00;99044.19;5067817;28;19973;-80
2021/08/10 01:59:18;;;;;;;;;;;;;;;17.75;100.00;99040.94;5069284;28;19920;-80
2021/08/10 02:01:44;;;;;;;;;;;;;;;18.05;98.83;99044.38;5068240;28;19965;-81
2021/08/10 02:04:09;;;;;;;;;;;;;;;17.69;100.00;99043.06;5069957;28;19917;-81
2021/08/10 02:06:35;;;;;;;;;;;;;;;17.44;100.00;99041.09;5069159;28;19984;-80
2021/08/10 02:09:01;;;;;;;;;;;;;;;17.77;100.00;99040.84;5051485;28;19924;-81
2021/08/10 02:11:27;;;;;;;;;;;;;;;17.56;100.00;99041.22;5050411;28;19927;-81
2021/08/10 02:13:53;;;;;;;;;;;;;;;17.46;100.00;99034.88;5066312;28;19928;-83
2021/08/10 02:16:18;;;;;;;;;;;;;;;17.41;100.00;99036.91;5066992;28;20007;-83
2021/08/10 02:18:45;;;;;;;;;;;;;;;17.94;100.00;99034.63;5064693;28;19916;-82
2021/08/10 02:21:11;;;;;;;;;;;;;;;17.92;100.00;99036.47;5050999;28;20017;-81
2021/08/10 02:23:37;;;;;;;;;;;;;;;17.71;100.00;99033.41;5066375;28;19920;-81
2021/08/10 02:26:02;;;;;;;;;;;;;;;17.22;100.00;99031.09;5065098;28;20518;-80
2021/08/10 02:28:27;;;;;;;;;;;;;;;17.41;100.00;99026.50;5051069;28;19956;-80
2021/08/10 02:30:53;;;;;;;;;;;;;;;17.31;100.00;99022.75;5059061;28;19938;-82
2021/08/10 02:33:20;;;;;;;;;;;;;;;17.22;100.00;99023.31;5067689;28;19920;-80
2021/08/10 02:35:45;;;;;;;;;;;;;;;17.59;100.00;99028.94;5052588;28;19927;-81
2021/08/10 02:38:12;;;;;;;;;;;;;;;17.69;100.00;99019.63;5062304;28;19916;-80
2021/08/10 02:40:37;;;;;;;;;;;;;;;17.78;97.13;99029.47;5042065;28;19927;-81
2021/08/10 02:43:03;;;;;;;;;;;;;;;17.86;99.96;99027.28;5065600;28;19968;-81
2021/08/10 02:45:28;;;;;;;;;;;;;;;17.91;95.41;99027.00;5053256;28;20374;-80
2021/08/10 02:47:55;;;;;;;;;;;;;;;17.54;100.00;99031.81;5050808;28;19931;-81
2021/08/10 02:50:20;;;;;;;;;;;;;;;17.84;95.81;99023.94;5065607;28;19931;-81
2021/08/10 02:52:46;;;;;;;;;;;;;;;17.90;92.39;99023.56;5049995;28;19920;-80
2021/08/10 02:55:11;;;;;;;;;;;;;;;17.75;93.97;99019.25;5066321;28;19920;-81
2021/08/10 02:57:57;;;;;;;;;;;;;;;18.07;94.57;99027.72;5063597;28;19920;-80
2021/08/10 03:00:22;;;;;;;;;;;;;;;17.86;98.48;99031.63;5064102;28;19990;-81
2021/08/10 03:02:48;;;;;;;;;;;;;;;17.71;93.71;99026.41;5067198;28;19920;-80
2021/08/10 03:05:23;;;;;;;;;;;;;;;17.76;96.03;99020.91;5054183;28;19943;-81
2021/08/10 03:07:49;;;;;;;;;;;;;;;17.53;98.39;99020.53;5054263;28;19947;-81
2021/08/10 03:10:15;;;;;;;;;;;;;;;17.66;97.35;99010.22;5053083;28;19917;-81
2021/08/10 03:12:41;;;;;;;;;;;;;;;17.65;94.52;99012.91;5053832;28;19920;-81
2021/08/10 03:15:06;;;;;;;;;;;;;;;17.53;94.18;99015.34;5070930;28;19916;-81
2021/08/10 03:17:32;;;;;;;;;;;;;;;17.26;100.00;99022.19;5062321;28;19939;-83
2021/08/10 03:19:58;;;;;;;;;;;;;;;17.77;99.69;99022.59;5073286;28;19922;-81
2021/08/10 03:22:23;;;;;;;;;;;;;;;17.87;98.61;99023.72;5054050;28;20576;-80
2021/08/10 03:24:48;;;;;;;;;;;;;;;17.60;98.42;99020.19;5070989;28;19954;-82
2021/08/10 03:27:14;;;;;;;;;;;;;;;17.22;99.41;99020.69;5054145;28;20051;-81
2021/08/10 03:29:39;;;;;;;;;;;;;;;17.68;97.14;99024.00;5070904;28;19924;-82
2021/08/10 03:32:05;;;;;;;;;;;;;;;17.90;91.19;99028.78;5068868;28;19946;-80
2021/08/10 03:34:31;;;;;;;;;;;;;;;17.60;98.49;99031.44;5071787;28;19966;-80
2021/08/10 03:36:56;;;;;;;;;;;;;;;17.77;95.09;99038.25;5054754;28;20387;-82
2021/08/10 03:39:22;;;;;;;;;;;;;;;17.59;98.74;99041.97;5070928;28;19967;-83
2021/08/10 03:41:47;;;;;;;;;;;;;;;17.69;96.33;99032.66;5054704;28;19955;-81
2021/08/10 03:44:13;;;;;;;;;;;;;;;17.77;95.74;99046.06;5055237;28;19916;-80
2021/08/10 03:46:38;;;;;;;;;;;;;;;17.67;95.51;99043.16;5071819;28;20714;-84
2021/08/10 03:49:03;;;;;;;;;;;;;;;17.03;100.00;99039.16;5051742;28;19923;-80
2021/08/10 03:51:29;;;;;;;;;;;;;;;17.44;100.00;99036.72;5053380;28;20019;-80
2021/08/10 03:53:54;;;;;;;;;;;;;;;17.29;98.39;99040.25;5070325;28;19970;-80
2021/08/10 03:56:24;;;;;;;;;;;;;;;17.78;100.00;99039.91;5052172;28;20392;-81
2021/08/10 03:58:50;;;;;;;;;;;;;;;17.67;97.86;99050.97;5072360;28;19920;-81
2021/08/10 04:01:15;;;;;;;;;;;;;;;17.77;94.07;99048.66;5068510;28;19928;-81
2021/08/10 04:03:40;;;;;;;;;;;;;;;17.56;97.02;99043.81;5073649;28;20336;-81
2021/08/10 04:06:06;;;;;;;;;;;;;;;17.36;100.00;99036.34;5070989;28;20361;-82
2021/08/10 04:08:32;;;;;;;;;;;;;;;17.51;100.00;99032.81;5072446;28;19920;-79
2021/08/10 04:10:57;;;;;;;;;;;;;;;17.55;98.93;99038.69;5054007;28;20884;-80
2021/08/10 04:13:22;;;;;;;;;;;;;;;17.23;100.00;99038.00;5070934;28;19974;-79
2021/08/10 04:15:48;;;;;;;;;;;;;;;17.33;97.06;99049.53;5069728;28;19923;-80
2021/08/10 04:18:15;;;;;;;;;;;;;;;17.59;100.00;99049.78;5055111;28;20680;-80
2021/08/10 04:20:41;;;;;;;;;;;;;;;17.64;100.00;99060.75;5069136;28;19955;-81
2021/08/10 04:23:06;;;;;;;;;;;;;;;17.72;97.99;99066.31;5071857;28;19955;-80
2021/08/10 04:25:32;;;;;;;;;;;;;;;17.76;100.00;99068.63;5069844;28;19947;-79
2021/08/10 04:27:58;;;;;;;;;;;;;;;17.58;100.00;99074.13;5073695;28;19923;-80
2021/08/10 04:30:23;;;;;;;;;;;;;;;18.06;100.00;99079.91;5057249;28;19920;-80
2021/08/10 04:32:48;;;;;;;;;;;;;;;17.85;100.00;99080.31;5070590;28;20015;-82
2021/08/10 04:35:13;;;;;;;;;;;;;;;17.74;100.00;99090.50;5071360;28;19916;-82
2021/08/10 04:37:39;;;;;;;;;;;;;;;17.76;100.00;99083.44;5069633;28;20420;-82
2021/08/10 04:40:04;;;;;;;;;;;;;;;17.80;100.00;99089.31;5066910;28;19920;-82
2021/08/10 04:42:30;;;;;;;;;;;;;;;17.58;100.00;99097.56;5073475;28;19959;-82
2021/08/10 04:44:55;;;;;;;;;;;;;;;17.53;100.00;99100.44;5052491;28;20007;-82
2021/08/10 04:47:20;;;;;;;;;;;;;;;17.39;100.00;99101.25;5068291;28;19999;-83
2021/08/10 04:49:46;;;;;;;;;;;;;;;17.11;100.00;99115.84;5069197;28;19920;-82
2021/08/10 04:52:11;;;;;;;;;;;;;;;16.56;100.00;99123.25;5044282;28;19986;-83
2021/08/10 04:54:36;;;;;;;;;;;;;;;16.53;100.00;99126.88;5067934;28;19917;-83
2021/08/10 04:57:02;;;;;;;;;;;;;;;16.52;100.00;99126.03;5060917;28;19970;-83
2021/08/10 04:59:27;;;;;;;;;;;;;;;16.24;100.00;99124.09;5069049;28;19915;-83
2021/08/10 05:01:53;;;;;;;;;;;;;;;16.06;100.00;99132.84;5050825;28;19970;-83
2021/08/10 05:04:18;;;;;;;;;;;;;;;16.34;100.00;99141.78;5068864;28;19916;-83
2021/08/10 05:06:43;;;;;;;;;;;;;;;16.09;100.00;99143.06;5074616;28;19919;-84
2021/08/10 05:09:09;;;;;;;;;;;;;;;16.18;100.00;99153.00;5051432;28;19971;-83
2021/08/10 05:11:35;;;;;;;;;;;;;;;16.24;100.00;99144.88;5046981;28;19924;-83
2021/08/10 05:14:00;;;;;;;;;;;;;;;16.21;100.00;99137.22;5072128;28;19917;-83
2021/08/10 05:16:25;;;;;;;;;;;;;;;16.39;100.00;99144.97;5057876;28;19912;-83
2021/08/10 05:18:50;;;;;;;;;;;;;;;16.54;100.00;99149.34;5062628;28;20394;-83
2021/08/10 05:21:19;;;;;;;;;;;;;;;16.52;100.00;99143.41;5074021;28;19933;-83
2021/08/10 05:23:44;;;;;;;;;;;;;;;16.58;100.00;99130.06;5057728;28;19938;-83
2021/08/10 05:26:10;;;;;;;;;;;;;;;16.68;100.00;99125.19;5053633;28;19920;-82
2021/08/10 05:28:35;;;;;;;;;;;;;;;17.11;100.00;99113.25;5057010;28;19920;-82
2021/08/10 05:31:00;;;;;;;;;;;;;;;17.50;100.00;99103.22;5076069;28;19912;-82
2021/08/10 05:33:25;;;;;;;;;;;;;;;17.65;100.00;99096.25;5081237;28;19912;-83
2021/08/10 05:35:51;;;;;;;;;;;;;;;17.65;100.00;99089.31;5067112;28;19919;-82
2021/08/10 05:38:16;;;;;;;;;;;;;;;16.98;100.00;99088.84;5071861;28;20003;-82
2021/08/10 05:40:41;;;;;;;;;;;;;;;17.20;100.00;99072.03;5071948;28;19916;-83
2021/08/10 05:43:06;;;;;;;;;;;;;;;17.14;100.00;99071.44;5055306;28;19999;-83
2021/08/10 05:45:32;;;;;;;;;;;;;;;17.47;100.00;99072.16;5072474;28;19991;-83
2021/08/10 05:47:57;;;;;;;;;;;;;;;17.10;100.00;99069.94;5054357;28;20375;-82
2021/08/10 05:50:23;;;;;;;;;;;;;;;17.14;100.00;99074.03;5053159;28;20375;-82
2021/08/10 05:52:49;;;;;;;;;;;;;;;17.56;100.00;99082.88;5051822;28;20349;-84
2021/08/10 05:55:14;;;;;;;;;;;;;;;17.31;100.00;99085.22;5066906;28;19953;-84
2021/08/10 05:57:40;;;;;;;;;;;;;;;17.19;100.00;99088.56;5066903;28;20391;-84
2021/08/10 06:00:05;;;;;;;;;;;;;;;17.44;100.00;99085.34;5054222;28;19987;-83
2021/08/10 06:02:31;;;;;;;;;;;;;;;17.22;100.00;99075.34;5069251;28;19981;-82
2021/08/10 06:04:56;;;;;;;;;;;;;;;17.12;100.00;99070.69;5054460;28;19916;-82
2021/08/10 06:07:21;;;;;;;;;;;;;;;17.18;100.00;99076.47;5052208;28;19916;-82
2021/08/10 06:09:47;;;;;;;;;;;;;;;17.48;100.00;99073.84;5069159;28;19920;-83
2021/08/10 06:12:12;;;;;;;;;;;;;;;17.62;100.00;99075.63;5053332;28;19925;-83
2021/08/10 06:14:37;;;;;;;;;;;;;;;17.68;100.00;99072.66;5053577;28;19916;-83
2021/08/10 06:17:02;;;;;;;;;;;;;;;17.62;100.00;99068.63;5052168;28;19913;-83
2021/08/10 06:19:28;;;;;;;;;;;;;;;17.40;100.00;99063.84;5068241;28;20398;-82
2021/08/10 06:21:54;;;;;;;;;;;;;;;17.59;100.00;99071.44;5070279;28;19917;-82
2021/08/10 06:24:19;;;;;;;;;;;;;;;17.56;100.00;99067.25;5054374;28;19934;-82
2021/08/10 06:26:46;;;;;;;;;;;;;;;17.73;100.00;99065.41;5066751;28;20992;-82
2021/08/10 06:29:11;;;;;;;;;;;;;;;18.01;100.00;99055.91;5049375;28;19927;-83
2021/08/10 06:31:36;;;;;;;;;;;;;;;18.36;100.00;99057.19;5050413;28;19916;-82
2021/08/10 06:34:02;;;;;;;;;;;;;;;18.51;100.00;99051.91;5050640;28;19916;-82
2021/08/10 06:36:27;;;;;;;;;;;;;;;18.39;100.00;99049.16;5048967;28;19916;-81
2021/08/10 06:38:52;;;;;;;;;;;;;;;18.24;100.00;99057.94;5067121;28;19915;-82
2021/08/10 06:41:18;;;;;;;;;;;;;;;18.60;100.00;99057.38;5068692;28;20696;-80
2021/08/10 06:43:43;;;;;;;;;;;;;;;18.87;100.00;99066.16;5072403;28;19916;-82
2021/08/10 06:46:08;;;;;;;;;;;;;;;18.90;100.00;99073.78;5064549;28;19916;-81
2021/08/10 06:48:34;;;;;;;;;;;;;;;19.38;100.00;99071.47;5068073;28;19924;-82
2021/08/10 06:51:01;;;;;;;;;;;;;;;19.17;100.00;99069.34;5052923;28;19963;-81
2021/08/10 06:53:26;;;;;;;;;;;;;;;19.42;100.00;99079.00;5051785;28;19916;-81
2021/08/10 06:55:52;;;;;;;;;;;;;;;19.47;98.69;99076.06;5050166;28;19916;-81
2021/08/10 06:58:17;;;;;;;;;;;;;;;19.05;100.00;99085.84;5066367;28;20017;-81
2021/08/10 07:00:42;;;;;;;;;;;;;;;20.21;100.00;99081.50;5067061;28;19974;-81
2021/08/10 07:03:08;;;;;;;;;;;;;;;20.41;90.80;99073.09;5050250;28;19917;-81
2021/08/10 07:05:33;;;;;;;;;;;;;;;20.42;98.44;99074.75;5050465;28;19916;-81
2021/08/10 07:07:59;;;;;;;;;;;;;;;20.63;96.43;99077.63;5067116;28;19920;-81
2021/08/10 07:10:24;;;;;;;;;;;;;;;20.58;87.51;99078.91;5068754;28;20805;-81
2021/08/10 07:12:49;;;;;;;;;;;;;;;20.53;91.74;99079.22;5068228;28;19916;-80
2021/08/10 07:15:14;;;;;;;;;;;;;;;20.97;92.64;99085.63;5051995;28;20283;-80
2021/08/10 07:17:40;;;;;;;;;;;;;;;21.03;90.02;99079.94;5067906;28;19963;-81
2021/08/10 07:20:05;;;;;;;;;;;;;;;20.85;86.36;99081.31;5065910;28;19924;-80
2021/08/10 07:22:31;;;;;;;;;;;;;;;21.04;90.71;99083.41;5067533;28;19916;-80
2021/08/10 07:24:56;;;;;;;;;;;;;;;21.22;91.87;99083.81;5064404;28;19916;-80
2021/08/10 07:27:21;;;;;;;;;;;;;;;21.03;88.38;99087.81;5047403;28;19916;-80
2021/08/10 07:29:47;;;;;;;;;;;;;;;21.25;86.61;99079.16;5046999;28;19921;-80
2021/08/10 07:32:12;;;;;;;;;;;;;;;21.17;85.66;99084.16;5054463;28;19916;-80
2021/08/10 07:34:38;;;;;;;;;;;;;;;21.81;83.53;99080.25;5044480;28;19924;-79
2021/08/10 07:37:03;;;;;;;;;;;;;;;21.81;85.02;99081.09;5061158;28;19920;-80
2021/08/10 07:39:28;;;;;;;;;;;;;;;21.68;81.04;99080.38;5067785;28;20348;-79
2021/08/10 07:41:54;;;;;;;;;;;;;;;21.80;81.11;99078.56;5070982;28;19913;-80
2021/08/10 07:44:19;;;;;;;;;;;;;;;21.91;84.15;99070.72;5068845;28;19990;-82
2021/08/10 07:46:44;;;;;;;;;;;;;;;21.92;84.03;99082.88;5066250;28;19920;-80
2021/08/10 07:49:09;;;;;;;;;;;;;;;22.03;80.11;99085.50;5072428;28;20431;-80
2021/08/10 07:51:35;;;;;;;;;;;;;;;22.51;79.91;99100.13;5072445;28;19916;-81
2021/08/10 07:54:00;;;;;;;;;;;;;;;22.31;89.08;99101.72;5067403;28;19916;-80
2021/08/10 07:56:26;;;;;;;;;;;;;;;21.14;94.45;99102.69;5061234;28;19931;-80
2021/08/10 07:58:51;;;;;;;;;;;;;;;22.00;87.15;99100.63;5067930;28;19927;-81
2021/08/10 08:01:16;;;;;;;;;;;;;;;22.80;82.43;99107.47;5070446;28;19950;-81
2021/08/10 08:03:41;;;;;;;;;;;;;;;23.34;77.92;99099.50;5051407;28;19987;-81
2021/08/10 08:06:07;;;;;;;;;;;;;;;23.13;77.81;99090.78;5069977;28;20009;-80
2021/08/10 08:08:33;;;;;;;;;;;;;;;23.31;79.96;99097.13;5069531;28;20642;-81
2021/08/10 08:10:58;;;;;;;;;;;;;;;21.77;86.46;99105.03;5051136;28;20027;-81
2021/08/10 08:13:24;;;;;;;;;;;;;;;22.80;84.35;99095.16;5047993;28;19917;-80
2021/08/10 08:15:50;;;;;;;;;;;;;;;21.15;84.04;99104.38;5049561;28;19924;-82
2021/08/10 08:18:16;;;;;;;;;;;;;;;22.14;90.45;99095.97;5053064;28;20554;-81
2021/08/10 08:20:42;;;;;;;;;;;;;;;23.10;83.14;99099.72;5049211;28;19916;-81
2021/08/10 08:23:07;;;;;;;;;;;;;;;22.30;87.82;99097.44;5047631;28;19923;-81
2021/08/10 08:25:32;;;;;;;;;;;;;;;22.44;81.78;99101.56;5065320;28;19927;-81
2021/08/10 08:27:58;;;;;;;;;;;;;;;21.76;86.90;99101.59;5067394;28;19931;-82
2021/08/10 08:30:23;;;;;;;;;;;;;;;21.56;88.78;99103.09;5069100;28;19924;-81
2021/08/10 08:32:48;;;;;;;;;;;;;;;21.64;84.21;99099.88;5064868;28;19956;-81
2021/08/10 08:35:14;;;;;;;;;;;;;;;22.02;85.54;99104.81;5067035;28;19920;-80
2021/08/10 08:37:39;;;;;;;;;;;;;;;21.97;85.96;99096.47;5053192;28;20093;-82
2021/08/10 08:40:05;;;;;;;;;;;;;;;22.67;80.73;99100.59;5072859;28;19909;-81
2021/08/10 08:42:31;;;;;;;;;;;;;;;22.70;82.71;99102.13;5070154;28;20310;-82
2021/08/10 08:44:56;;;;;;;;;;;;;;;22.75;86.01;99102.59;5070269;28;19916;-82
2021/08/10 08:47:22;;;;;;;;;;;;;;;23.44;77.24;99103.97;5054051;28;20512;-82
2021/08/10 08:49:47;;;;;;;;;;;;;;;24.16;75.51;99101.34;5069222;28;19927;-81
2021/08/10 08:52:13;;;;;;;;;;;;;;;24.84;69.03;99096.25;5062631;28;19993;-81
2021/08/10 08:54:39;;;;;;;;;;;;;;;24.93;67.03;99094.59;5051363;28;19947;-81
2021/08/10 08:57:04;;;;;;;;;;;;;;;24.18;69.45;99104.66;5048500;28;19915;-81
2021/08/10 08:59:29;;;;;;;;;;;;;;;24.36;67.63;99098.78;5051180;28;20081;-81
2021/08/10 09:01:55;;;;;;;;;;;;;;;22.91;83.64;99099.56;5061900;28;19920;-83
2021/08/10 09:04:20;;;;;;;;;;;;;;;21.87;83.28;99106.84;5074843;28;19920;-82
2021/08/10 09:06:46;;;;;;;;;;;;;;;22.88;81.91;99103.25;5052666;28;19943;-81
2021/08/10 09:09:25;;;;;;;;;;;;;;;23.83;77.66;99104.22;5074817;28;20563;-82
2021/08/10 09:11:52;;;;;;;;;;;;;;;25.31;65.98;99095.56;5049448;28;19924;-82
2021/08/10 09:14:17;;;;;;;;;;;;;;;25.07;61.97;99093.34;5076022;28;19955;-82
2021/08/10 09:17:03;;;;;;;;;;;;;;;25.54;60.75;99092.59;5078640;28;19916;-82
2021/08/10 09:19:42;;;;;;;;;;;;;;;24.59;66.83;99092.34;5075086;28;20410;-82
2021/08/10 09:22:13;;;;;;;;;;;;;;;23.62;70.32;99091.09;5071845;28;19943;-82
2021/08/10 09:24:43;;;;;;;;;;;;;;;23.82;71.41;99097.31;5073571;28;19922;-81
2021/08/10 09:27:21;;;;;;;;;;;;;;;24.46;70.18;99099.63;5061648;28;19931;-83
2021/08/10 09:29:46;;;;;;;;;;;;;;;24.42;67.44;99100.84;5079256;28;20458;-84
2021/08/10 09:32:12;;;;;;;;;;;;;;;24.44;67.85;99093.66;5062822;28;19920;-83
2021/08/10 09:34:37;;;;;;;;;;;;;;;25.25;64.42;99094.31;5079155;28;19952;-82
2021/08/10 09:37:03;;;;;;;;;;;;;;;25.82;61.87;99085.59;5079815;28;19920;-82
2021/08/10 09:39:32;;;;;;;;;;;;;;;23.53;65.67;99090.91;5060077;28;20585;-83
2021/08/10 09:42:04;;;;;;;;;;;;;;;24.15;66.56;99076.00;5077578;28;20446;-83
2021/08/10 09:44:30;;;;;;;;;;;;;;;24.39;70.07;99080.91;5077883;28;19920;-83
2021/08/10 09:46:56;;;;;;;;;;;;;;;25.31;60.52;99082.38;5078154;28;19923;-81
2021/08/10 09:49:22;;;;;;;;;;;;;;;23.39;67.23;99086.81;5077153;28;19934;-83
2021/08/10 09:51:51;;;;;;;;;;;;;;;23.34;67.16;99083.72;5080512;28;20007;-82
2021/08/10 09:54:17;;;;;;;;;;;;;;;24.32;64.82;99079.78;5063529;28;19920;-82
2021/08/10 09:56:53;;;;;;;;;;;;;;;25.48;58.64;99072.91;5079099;28;19973;-83
2021/08/10 09:59:19;;;;;;;;;;;;;;;25.26;57.06;99081.97;5076555;28;19958;-81
2021/08/10 10:01:45;;;;;;;;;;;;;;;26.54;62.58;99065.50;5074766;28;20014;-82
2021/08/10 10:04:11;;;;;;;;;;;;;;;24.02;65.79;99072.75;5074126;28;20359;-82
2021/08/10 10:06:36;;;;;;;;;;;;;;;25.40;55.33;99065.69;5068292;28;19916;-83
2021/08/10 10:09:02;;;;;;;;;;;;;;;25.24;65.80;99071.56;5069085;28;19969;-81
2021/08/10 10:11:28;;;;;;;;;;;;;;;25.40;59.76;99070.16;5067967;28;19924;-82
2021/08/10 10:13:53;;;;;;;;;;;;;;;26.16;56.84;99064.78;5073299;28;20314;-82
2021/08/10 10:16:19;;;;;;;;;;;;;;;27.44;49.98;99066.31;5066337;28;20019;-82
2021/08/10 10:18:44;;;;;;;;;;;;;;;27.05;50.17;99064.03;5045846;28;19919;-82
2021/08/10 10:21:10;;;;;;;;;;;;;;;25.93;53.09;99059.03;5065006;28;19920;-81
2021/08/10 10:23:35;;;;;;;;;;;;;;;25.96;57.34;99060.56;5047285;28;19960;-81
2021/08/10 10:26:01;;;;;;;;;;;;;;;25.63;53.20;99062.72;5066922;28;19916;-81
2021/08/10 10:28:26;;;;;;;;;;;;;;;26.85;53.44;99059.88;5061852;28;19920;-81
2021/08/10 10:30:51;;;;;;;;;;;;;;;27.21;51.30;99057.22;5061523;28;19932;-81
2021/08/10 10:33:17;;;;;;;;;;;;;;;27.16;54.72;99056.81;5047771;28;19925;-81
2021/08/10 10:35:42;;;;;;;;;;;;;;;27.35;48.58;99066.41;5066415;28;19916;-81
2021/08/10 10:38:08;;;;;;;;;;;;;;;27.45;49.41;99061.84;5070329;28;19917;-81
2021/08/10 10:40:34;;;;;;;;;;;;;;;25.08;52.84;99057.28;5052169;28;19922;-81
2021/08/10 10:42:59;;;;;;;;;;;;;;;25.28;55.86;99061.56;5054062;28;19916;-81
2021/08/10 10:45:31;;;;;;;;;;;;;;;26.73;53.09;99055.78;5073188;28;19916;-81
2021/08/10 10:47:57;;;;;;;;;;;;;;;26.27;52.73;99059.28;5056139;28;19971;-82
2021/08/10 10:50:22;;;;;;;;;;;;;;;26.81;52.81;99062.00;5057987;28;20011;-82
2021/08/10 10:52:58;;;;;;;;;;;;;;;27.09;53.39;99054.78;5056851;28;19924;-83
2021/08/10 10:55:30;;;;;;;;;;;;;;;25.44;55.60;99055.72;5059842;28;19921;-82
2021/08/10 10:57:55;;;;;;;;;;;;;;;25.74;51.98;99059.91;5076454;28;19927;-82
2021/08/10 11:00:21;;;;;;;;;;;;;;;25.28;51.09;99058.94;5059008;28;19920;-81
2021/08/10 11:03:05;;;;;;;;;;;;;;;25.60;50.30;99057.75;5072958;28;20296;-81
2021/08/10 11:05:31;;;;;;;;;;;;;;;25.12;59.51;99059.47;5074812;28;19956;-82
2021/08/10 11:07:56;;;;;;;;;;;;;;;26.83;56.81;99051.28;5060156;28;19920;-82
2021/08/10 11:10:34;;;;;;;;;;;;;;;26.57;52.58;99059.97;5075724;28;19920;-82
2021/08/10 11:12:59;;;;;;;;;;;;;;;24.94;55.26;99062.00;5076517;28;19916;-82
2021/08/10 11:15:43;;;;;;;;;;;;;;;25.72;52.27;99056.59;5061129;28;19927;-82
2021/08/10 11:18:09;;;;;;;;;;;;;;;25.58;54.49;99051.78;5073569;28;19950;-81
2021/08/10 11:20:38;;;;;;;;;;;;;;;26.28;53.62;99055.66;5067312;28;19920;-81
2021/08/10 11:25:45;;;;;;;;;;;;;;;27.11;50.10;99050.19;5073632;28;20512;-81
2021/08/10 11:28:26;;;;;;;;;;;;;;;26.76;49.07;99058.16;5068662;28;19928;-82
2021/08/10 11:30:51;;;;;;;;;;;;;;;26.82;54.61;99054.88;5071078;28;19930;-81
2021/08/10 11:33:36;;;;;;;;;;;;;;;26.35;50.66;99053.25;5059589;28;19916;-82
2021/08/10 11:36:12;;;;;;;;;;;;;;;25.93;55.09;99055.56;5082231;28;19920;-82
2021/08/10 11:38:37;;;;;;;;;;;;;;;26.71;53.65;99055.97;5082037;28;19998;-82
2021/08/10 11:41:03;;;;;;;;;;;;;;;27.07;52.62;99053.28;5080791;28;20014;-82
2021/08/10 11:43:38;;;;;;;;;;;;;;;26.65;50.90;99056.56;5081985;28;19920;-82
2021/08/10 11:46:05;;;;;;;;;;;;;;;26.76;53.30;99055.50;5079400;28;19920;-81
2021/08/10 11:48:47;;;;;;;;;;;;;;;27.15;52.04;99058.63;5074448;28;19928;-82
2021/08/10 11:51:15;;;;;;;;;;;;;;;26.16;51.84;99066.56;5069514;28;19921;-82
2021/08/10 11:53:40;;;;;;;;;;;;;;;25.53;59.03;99054.84;5075251;28;19969;-81
2021/08/10 11:56:19;;;;;;;;;;;;;;;25.86;52.07;99050.84;5072516;28;20383;-81
2021/08/10 11:58:45;;;;;;;;;;;;;;;26.78;53.66;99058.84;5069266;28;19927;-81
2021/08/10 12:01:10;;;;;;;;;;;;;;;27.46;51.64;99052.91;5070353;28;20989;-81
2021/08/10 12:03:35;;;;;;;;;;;;;;;27.60;47.67;99052.38;5069912;28;19924;-81
2021/08/10 12:06:01;;;;;;;;;;;;;;;26.39;48.37;99059.91;5067985;28;19919;-81
2021/08/10 12:08:26;;;;;;;;;;;;;;;26.53;47.87;99063.84;5053732;28;19971;-81
2021/08/10 12:10:51;;;;;;;;;;;;;;;26.56;49.94;99058.28;5052959;28;19970;-82
2021/08/10 12:13:20;;;;;;;;;;;;;;;25.98;52.01;99055.94;5071538;28;19921;-81
2021/08/10 12:15:46;;;;;;;;;;;;;;;26.97;52.36;99056.03;5085559;28;19962;-81
2021/08/10 12:18:13;;;;;;;;;;;;;;;27.02;51.44;99056.38;5052064;28;19964;-81
2021/08/10 12:20:39;;;;;;;;;;;;;;;27.09;50.18;99049.50;5052482;28;21188;-82
2021/08/10 12:23:13;;;;;;;;;;;;;;;28.07;50.97;99048.47;5054780;28;20102;-82
2021/08/10 12:25:38;;;;;;;;;;;;;;;28.41;52.57;99047.56;5068890;28;19926;-82
2021/08/10 12:28:08;;;;;;;;;;;;;;;28.94;48.25;99046.31;5049882;28;19920;-81
2021/08/10 12:30:34;;;;;;;;;;;;;;;28.50;50.53;99039.50;5054294;28;20335;-82
2021/08/10 12:33:12;;;;;;;;;;;;;;;28.64;49.67;99032.72;5072802;28;19973;-82
2021/08/10 12:35:37;;;;;;;;;;;;;;;28.67;49.25;99035.06;5072978;28;19956;-82
2021/08/10 12:38:04;;;;;;;;;;;;;;;27.82;49.26;99042.19;5063739;28;19917;-82
2021/08/10 12:40:29;;;;;;;;;;;;;;;28.97;50.39;99024.78;5074105;28;20433;-82
2021/08/10 12:42:54;;;;;;;;;;;;;;;28.98;47.31;99031.75;5079498;28;19916;-82